Time;durP1;ratioP1;P1;durP2;ratioP2;P2;SDS_P1;SDS_P2;PMS_P1;PMS_P2;Temp;Humidity;BMP_temperature;BMP_pressure;BME280_temperature;BME280_humidity;BME280_pressure;Samples;Min_cycle;Max_cycle;Signal;HPM_P1;HPM_P2
2022/06/20 14:03:08;;;;;;;4.30;1.88;;;16.40;99.90;;;;;;6288393;22;1383204;-40
2022/06/20 14:05:37;;;;;;;5.18;1.88;;;16.40;99.90;;;;;;6271981;22;20424;-40
2022/06/20 14:08:17;;;;;;;3.78;1.58;;;16.30;99.90;;;;;;6301818;22;20022;-40
2022/06/20 14:10:51;;;;;;;7.50;2.03;;;16.30;99.90;;;;;;6301807;22;20015;-40
2022/06/20 14:13:25;;;;;;;4.80;1.83;;;16.20;99.90;;;;;;6302266;22;20022;-40
2022/06/20 14:15:52;;;;;;;7.22;2.13;;;16.10;99.90;;;;;;6265167;22;20030;-44
2022/06/20 14:18:28;;;;;;;7.38;1.92;;;16.10;99.90;;;;;;6269256;22;20011;-43
2022/06/20 14:20:53;;;;;;;4.40;2.00;;;16.20;99.90;;;;;;6215940;22;20019;-45
2022/06/20 14:23:21;;;;;;;4.20;2.15;;;16.30;99.90;;;;;;6242379;22;20069;-43
2022/06/20 14:25:51;;;;;;;5.28;1.80;;;16.40;99.90;;;;;;6217066;22;20023;-43
2022/06/20 14:28:25;;;;;;;3.95;1.70;;;16.50;99.90;;;;;;6243024;22;20039;-44
2022/06/20 14:31:15;;;;;;;4.43;1.80;;;16.50;99.90;;;;;;6240582;22;20016;-43
2022/06/20 14:34:02;;;;;;;12.75;2.38;;;16.50;99.90;;;;;;6217348;22;20074;-44
2022/06/20 14:36:29;;;;;;;4.82;1.80;;;16.30;99.90;;;;;;6238466;22;20012;-44
2022/06/20 14:39:04;;;;;;;5.65;2.40;;;16.20;99.90;;;;;;6239842;22;20030;-44
2022/06/20 14:41:44;;;;;;;8.88;2.22;;;16.20;99.90;;;;;;6242428;22;20019;-44
2022/06/20 14:44:29;;;;;;;8.00;2.03;;;16.20;99.90;;;;;;6216595;22;20012;-43
2022/06/20 14:47:32;;;;;;;6.20;2.00;;;16.10;99.90;;;;;;6240570;22;20012;-44
2022/06/20 14:50:14;;;;;;;6.40;2.10;;;16.00;99.90;;;;;;6270928;22;20012;-42
2022/06/20 14:53:05;;;;;;;9.13;3.03;;;15.90;99.90;;;;;;6242936;22;20038;-45
2022/06/20 14:55:40;;;;;;;7.63;2.85;;;15.90;99.90;;;;;;6271242;22;20441;-45
2022/06/20 14:58:49;;;;;;;8.02;2.53;;;15.70;99.90;;;;;;6243734;22;20051;-44
2022/06/20 15:01:47;;;;;;;7.05;2.53;;;15.70;99.90;;;;;;6186731;22;20015;-48
2022/06/20 15:04:47;;;;;;;9.02;2.03;;;15.80;99.90;;;;;;6269804;22;20022;-43
2022/06/20 15:07:35;;;;;;;9.95;2.25;;;15.70;99.90;;;;;;6163679;22;20019;-45
2022/06/20 15:10:22;;;;;;;7.37;2.27;;;15.80;99.90;;;;;;6243228;22;20190;-46
2022/06/20 15:12:52;;;;;;;4.53;1.60;;;16.00;99.90;;;;;;6243623;22;20019;-43
2022/06/20 15:15:37;;;;;;;9.07;2.28;;;16.20;99.90;;;;;;6243756;22;20051;-42
2022/06/20 15:18:17;;;;;;;6.18;2.00;;;16.20;99.90;;;;;;6243673;22;20092;-43
2022/06/20 15:21:20;;;;;;;9.60;2.17;;;16.40;99.90;;;;;;6242172;22;20027;-44
2022/06/20 15:24:04;;;;;;;7.28;2.33;;;16.60;99.90;;;;;;6238902;22;20019;-43
2022/06/20 15:26:33;;;;;;;8.48;2.10;;;16.70;99.90;;;;;;6215968;22;20026;-43
2022/06/20 15:29:22;;;;;;;6.13;2.50;;;16.70;99.90;;;;;;6243455;22;20528;-44
2022/06/20 15:31:57;;;;;;;5.60;2.08;;;16.70;99.90;;;;;;6242754;22;20016;-43
2022/06/20 15:34:36;;;;;;;6.63;2.20;;;16.80;99.90;;;;;;6271584;22;20016;-43
2022/06/20 15:37:16;;;;;;;7.93;2.35;;;16.90;99.90;;;;;;6215212;22;20023;-44
2022/06/20 15:39:50;;;;;;;10.02;2.25;;;17.00;99.90;;;;;;6218615;22;20016;-45
2022/06/20 15:42:22;;;;;;;6.97;2.30;;;17.10;99.90;;;;;;6217765;22;20020;-44
2022/06/20 15:45:00;;;;;;;7.63;2.50;;;17.00;99.90;;;;;;6217584;22;20094;-43
2022/06/20 15:47:59;;;;;;;8.10;2.38;;;17.00;99.90;;;;;;6270208;22;20038;-43
2022/06/20 15:50:27;;;;;;;7.57;2.65;;;17.10;99.90;;;;;;6270696;22;20372;-45
2022/06/20 15:53:05;;;;;;;6.63;2.17;;;16.80;99.90;;;;;;6271541;22;20015;-43
2022/06/20 15:56:00;;;;;;;7.88;2.40;;;16.70;99.90;;;;;;6245157;22;20019;-45
2022/06/20 15:58:36;;;;;;;9.90;2.38;;;16.50;99.90;;;;;;6270037;22;20204;-44
2022/06/20 16:01:15;;;;;;;6.88;2.30;;;16.40;99.90;;;;;;6243297;22;20334;-45
2022/06/20 16:04:19;;;;;;;7.40;2.22;;;16.30;99.90;;;;;;6241540;22;20008;-42
2022/06/20 16:07:21;;;;;;;9.73;2.38;;;16.40;99.90;;;;;;6271586;22;20118;-43
2022/06/20 16:10:12;;;;;;;9.05;2.45;;;16.50;99.90;;;;;;6269487;22;20012;-43
2022/06/20 16:12:58;;;;;;;7.07;2.22;;;16.50;99.90;;;;;;6221164;22;20016;-44
2022/06/20 16:15:33;;;;;;;7.45;2.20;;;16.50;99.90;;;;;;6244366;22;20050;-42
2022/06/20 16:18:02;;;;;;;10.10;2.22;;;16.60;99.90;;;;;;6272995;22;20101;-46
2022/06/20 16:20:30;;;;;;;4.85;1.63;;;16.60;99.90;;;;;;6271704;22;20348;-44
2022/06/20 16:23:18;;;;;;;8.63;2.00;;;16.50;99.90;;;;;;6271337;22;20021;-43
2022/06/20 16:25:44;;;;;;;3.77;1.50;;;16.40;99.90;;;;;;6245676;22;20433;-42
2022/06/20 16:28:16;;;;;;;6.63;1.67;;;16.20;99.90;;;;;;6244963;22;20414;-43
2022/06/20 16:30:55;;;;;;;7.18;1.48;;;16.20;99.90;;;;;;6272045;22;20022;-44
2022/06/20 16:33:21;;;;;;;5.15;1.40;;;16.20;99.90;;;;;;6273295;22;20023;-43
2022/06/20 16:35:48;;;;;;;3.65;1.30;;;16.10;99.90;;;;;;6274385;22;20008;-43
2022/06/20 16:38:22;;;;;;;9.20;1.98;;;16.20;99.90;;;;;;6220174;22;20441;-43
2022/06/20 16:41:21;;;;;;;5.82;1.48;;;16.30;99.90;;;;;;6244139;22;20015;-45
2022/06/20 16:44:26;;;;;;;8.07;1.58;;;16.40;99.90;;;;;;6218876;22;20443;-42
2022/06/20 16:47:25;;;;;;;6.28;1.63;;;16.50;99.90;;;;;;6161247;22;20007;-43
2022/06/20 16:49:55;;;;;;;3.92;1.10;;;16.70;99.90;;;;;;6245172;22;20460;-44
2022/06/20 16:52:35;;;;;;;7.25;1.20;;;16.70;99.90;;;;;;6271147;22;20026;-43
2022/06/20 16:55:20;;;;;;;5.32;1.02;;;16.80;99.90;;;;;;6269726;22;20019;-45
2022/06/20 16:57:49;;;;;;;6.88;1.90;;;16.90;99.90;;;;;;6270246;22;20016;-43
2022/06/20 17:00:22;;;;;;;3.00;1.00;;;16.90;99.90;;;;;;6270478;22;20337;-45
2022/06/20 17:02:50;;;;;;;7.55;1.25;;;16.80;99.90;;;;;;6242161;22;20018;-43
2022/06/20 17:05:47;;;;;;;6.32;1.23;;;16.80;99.90;;;;;;6267487;22;20018;-45
2022/06/20 17:08:36;;;;;;;6.97;1.50;;;16.60;99.90;;;;;;6270512;22;20494;-44
2022/06/20 17:11:11;;;;;;;5.13;1.00;;;16.40;99.90;;;;;;6268913;22;20337;-43
2022/06/20 17:13:56;;;;;;;6.30;0.98;;;16.40;99.90;;;;;;6269203;22;20024;-43
2022/06/20 17:16:51;;;;;;;6.13;1.50;;;16.20;99.90;;;;;;6241758;22;20345;-44
2022/06/20 17:19:24;;;;;;;11.15;1.40;;;;;;;;;;6269159;22;20683;-46
2022/06/20 17:22:05;;;;;;;9.05;1.50;;;16.00;99.90;;;;;;6241706;22;20065;-44
2022/06/20 17:25:03;;;;;;;3.13;0.95;;;16.00;99.90;;;;;;6240102;22;20016;-43
2022/06/20 17:28:06;;;;;;;5.53;1.27;;;16.10;99.90;;;;;;6240232;22;20071;-43
2022/06/20 17:30:54;;;;;;;6.85;1.02;;;16.10;99.90;;;;;;6241166;22;20412;-43
2022/06/20 17:33:49;;;;;;;5.97;1.13;;;16.20;99.90;;;;;;6241546;22;20020;-43
2022/06/20 17:36:41;;;;;;;4.93;1.00;;;16.20;99.90;;;;;;6240275;22;20601;-43
2022/06/20 17:39:45;;;;;;;3.03;0.93;;;16.10;99.90;;;;;;6238182;22;20043;-43
2022/06/20 17:42:23;;;;;;;4.68;1.30;;;16.00;99.90;;;;;;6259308;22;20970;-44
2022/06/20 17:45:00;;;;;;;;;;;15.90;99.90;;;;;;6216108;22;20057;-45
2022/06/20 17:48:04;;;;;;;8.40;1.23;;;15.70;99.90;;;;;;6241261;22;19994;-43
2022/06/20 17:50:45;;;;;;;8.18;1.48;;;15.70;99.90;;;;;;6268814;22;20073;-42
2022/06/20 17:53:16;;;;;;;6.63;1.30;;;15.70;99.90;;;;;;6240451;22;20584;-43
2022/06/20 18:03:18;;;;;;;5.28;1.20;;;15.50;99.90;;;;;;5952411;23;20110;-43
2022/06/20 18:06:35;;;;;;;7.30;1.67;;;15.40;99.90;;;;;;5893735;23;20717;-43
